sensor_id;sensor_type;location;lat;lon;timestamp;P1;durP1;ratioP1;P2;durP2;ratioP2
21270;SDS011;10795;50.796;3.860;2022-10-16T00:01:59;2.78;;;0.50;;
21270;SDS011;10795;50.796;3.860;2022-10-16T00:04:25;0.85;;;0.60;;
21270;SDS011;10795;50.796;3.860;2022-10-16T00:06:51;1.45;;;0.65;;
21270;SDS011;10795;50.796;3.860;2022-10-16T00:09:16;2.55;;;0.60;;
21270;SDS011;10795;50.796;3.860;2022-10-16T00:11:42;2.38;;;0.80;;
21270;SDS011;10795;50.796;3.860;2022-10-16T00:14:09;2.85;;;0.90;;
21270;SDS011;10795;50.796;3.860;2022-10-16T00:16:37;1.17;;;0.73;;
21270;SDS011;10795;50.796;3.860;2022-10-16T00:19:03;2.95;;;0.75;;
21270;SDS011;10795;50.796;3.860;2022-10-16T00:21:30;1.52;;;0.90;;
21270;SDS011;10795;50.796;3.860;2022-10-16T00:23:57;2.50;;;0.65;;
21270;SDS011;10795;50.796;3.860;2022-10-16T00:26:25;3.72;;;1.27;;
21270;SDS011;10795;50.796;3.860;2022-10-16T00:28:52;0.73;;;0.68;;
21270;SDS011;10795;50.796;3.860;2022-10-16T00:31:19;1.13;;;0.65;;
21270;SDS011;10795;50.796;3.860;2022-10-16T00:33:45;1.00;;;0.82;;
21270;SDS011;10795;50.796;3.860;2022-10-16T00:36:13;1.80;;;0.77;;
21270;SDS011;10795;50.796;3.860;2022-10-16T00:38:40;1.80;;;1.08;;
21270;SDS011;10795;50.796;3.860;2022-10-16T00:41:07;1.58;;;0.70;;
21270;SDS011;10795;50.796;3.860;2022-10-16T00:44:41;3.23;;;0.80;;
21270;SDS011;10795;50.796;3.860;2022-10-16T00:46:50;4.35;;;1.23;;
21270;SDS011;10795;50.796;3.860;2022-10-16T00:49:17;1.42;;;0.90;;
21270;SDS011;10795;50.796;3.860;2022-10-16T00:51:49;0.90;;;0.65;;
21270;SDS011;10795;50.796;3.860;2022-10-16T00:54:25;3.78;;;1.05;;
21270;SDS011;10795;50.796;3.860;2022-10-16T00:56:53;1.08;;;0.88;;
21270;SDS011;10795;50.796;3.860;2022-10-16T00:59:21;4.13;;;1.10;;
21270;SDS011;10795;50.796;3.860;2022-10-16T01:04:16;1.85;;;0.93;;
21270;SDS011;10795;50.796;3.860;2022-10-16T01:06:45;2.88;;;1.05;;
21270;SDS011;10795;50.796;3.860;2022-10-16T01:09:51;1.63;;;0.85;;
21270;SDS011;10795;50.796;3.860;2022-10-16T01:15:08;1.52;;;1.23;;
21270;SDS011;10795;50.796;3.860;2022-10-16T01:17:41;2.03;;;1.27;;
21270;SDS011;10795;50.796;3.860;2022-10-16T01:20:26;2.23;;;1.27;;
21270;SDS011;10795;50.796;3.860;2022-10-16T01:28:29;2.15;;;1.50;;
21270;SDS011;10795;50.796;3.860;2022-10-16T01:31:08;6.72;;;1.40;;
21270;SDS011;10795;50.796;3.860;2022-10-16T01:33:46;3.30;;;1.50;;
21270;SDS011;10795;50.796;3.860;2022-10-16T01:36:18;2.50;;;1.40;;
21270;SDS011;10795;50.796;3.860;2022-10-16T01:38:49;2.53;;;1.40;;
21270;SDS011;10795;50.796;3.860;2022-10-16T01:41:21;4.45;;;1.55;;
21270;SDS011;10795;50.796;3.860;2022-10-16T01:43:55;1.30;;;1.20;;
21270;SDS011;10795;50.796;3.860;2022-10-16T01:46:42;2.65;;;1.67;;
21270;SDS011;10795;50.796;3.860;2022-10-16T01:49:10;5.15;;;1.63;;
21270;SDS011;10795;50.796;3.860;2022-10-16T01:51:38;3.67;;;1.33;;
21270;SDS011;10795;50.796;3.860;2022-10-16T01:54:05;3.25;;;1.77;;
21270;SDS011;10795;50.796;3.860;2022-10-16T01:56:33;1.98;;;1.55;;
21270;SDS011;10795;50.796;3.860;2022-10-16T01:59:09;5.68;;;1.60;;
21270;SDS011;10795;50.796;3.860;2022-10-16T02:01:38;2.58;;;1.55;;
21270;SDS011;10795;50.796;3.860;2022-10-16T02:04:14;7.90;;;1.80;;
21270;SDS011;10795;50.796;3.860;2022-10-16T02:06:47;6.35;;;1.88;;
21270;SDS011;10795;50.796;3.860;2022-10-16T02:09:13;2.67;;;1.80;;
21270;SDS011;10795;50.796;3.860;2022-10-16T02:11:42;4.10;;;2.03;;
21270;SDS011;10795;50.796;3.860;2022-10-16T02:14:08;2.85;;;2.00;;
21270;SDS011;10795;50.796;3.860;2022-10-16T02:16:38;2.10;;;1.90;;
21270;SDS011;10795;50.796;3.860;2022-10-16T02:19:11;3.05;;;1.63;;
21270;SDS011;10795;50.796;3.860;2022-10-16T02:21:56;3.97;;;1.70;;
21270;SDS011;10795;50.796;3.860;2022-10-16T02:24:32;3.13;;;1.80;;
21270;SDS011;10795;50.796;3.860;2022-10-16T02:27:13;1.90;;;1.17;;
21270;SDS011;10795;50.796;3.860;2022-10-16T02:29:46;4.82;;;1.67;;
21270;SDS011;10795;50.796;3.860;2022-10-16T02:32:19;2.85;;;1.90;;
21270;SDS011;10795;50.796;3.860;2022-10-16T02:34:48;3.17;;;1.75;;
21270;SDS011;10795;50.796;3.860;2022-10-16T02:37:16;3.95;;;1.67;;
21270;SDS011;10795;50.796;3.860;2022-10-16T02:39:43;2.28;;;1.65;;
21270;SDS011;10795;50.796;3.860;2022-10-16T02:42:12;2.53;;;1.50;;
21270;SDS011;10795;50.796;3.860;2022-10-16T02:44:39;1.98;;;1.73;;
21270;SDS011;10795;50.796;3.860;2022-10-16T02:47:05;4.97;;;2.30;;
21270;SDS011;10795;50.796;3.860;2022-10-16T02:49:31;2.15;;;1.63;;
21270;SDS011;10795;50.796;3.860;2022-10-16T02:51:56;4.38;;;2.20;;
21270;SDS011;10795;50.796;3.860;2022-10-16T02:54:22;3.25;;;1.98;;
21270;SDS011;10795;50.796;3.860;2022-10-16T02:56:49;2.90;;;1.92;;
21270;SDS011;10795;50.796;3.860;2022-10-16T02:59:14;6.75;;;1.85;;
21270;SDS011;10795;50.796;3.860;2022-10-16T03:01:40;2.85;;;1.80;;
21270;SDS011;10795;50.796;3.860;2022-10-16T03:04:06;2.35;;;1.80;;
21270;SDS011;10795;50.796;3.860;2022-10-16T03:06:32;2.42;;;1.65;;
21270;SDS011;10795;50.796;3.860;2022-10-16T03:08:58;3.22;;;1.80;;
21270;SDS011;10795;50.796;3.860;2022-10-16T03:11:23;6.95;;;2.13;;
21270;SDS011;10795;50.796;3.860;2022-10-16T03:13:49;4.80;;;1.52;;
21270;SDS011;10795;50.796;3.860;2022-10-16T03:16:15;3.63;;;1.60;;
21270;SDS011;10795;50.796;3.860;2022-10-16T03:18:41;4.20;;;1.73;;
21270;SDS011;10795;50.796;3.860;2022-10-16T03:21:06;1.88;;;1.60;;
21270;SDS011;10795;50.796;3.860;2022-10-16T03:23:32;2.67;;;1.60;;
21270;SDS011;10795;50.796;3.860;2022-10-16T03:25:58;3.85;;;1.88;;
21270;SDS011;10795;50.796;3.860;2022-10-16T03:28:24;2.63;;;2.28;;
21270;SDS011;10795;50.796;3.860;2022-10-16T03:30:49;2.95;;;2.08;;
21270;SDS011;10795;50.796;3.860;2022-10-16T03:33:15;5.55;;;2.45;;
21270;SDS011;10795;50.796;3.860;2022-10-16T03:35:41;2.72;;;2.15;;
21270;SDS011;10795;50.796;3.860;2022-10-16T03:38:07;5.32;;;1.98;;
21270;SDS011;10795;50.796;3.860;2022-10-16T03:40:32;3.13;;;2.08;;
21270;SDS011;10795;50.796;3.860;2022-10-16T03:42:58;6.38;;;2.50;;
21270;SDS011;10795;50.796;3.860;2022-10-16T03:45:24;2.42;;;2.20;;
21270;SDS011;10795;50.796;3.860;2022-10-16T03:47:51;2.55;;;2.00;;
21270;SDS011;10795;50.796;3.860;2022-10-16T03:50:16;3.00;;;2.10;;
21270;SDS011;10795;50.796;3.860;2022-10-16T03:52:42;7.68;;;2.72;;
21270;SDS011;10795;50.796;3.860;2022-10-16T03:55:08;5.07;;;2.22;;
21270;SDS011;10795;50.796;3.860;2022-10-16T03:57:34;7.05;;;2.40;;
21270;SDS011;10795;50.796;3.860;2022-10-16T03:59:59;4.13;;;2.30;;
21270;SDS011;10795;50.796;3.860;2022-10-16T04:02:25;4.00;;;2.17;;
21270;SDS011;10795;50.796;3.860;2022-10-16T04:04:51;3.83;;;2.92;;
21270;SDS011;10795;50.796;3.860;2022-10-16T04:07:17;3.45;;;2.67;;
21270;SDS011;10795;50.796;3.860;2022-10-16T04:09:43;4.38;;;2.35;;
21270;SDS011;10795;50.796;3.860;2022-10-16T04:12:09;1.60;;;1.50;;
21270;SDS011;10795;50.796;3.860;2022-10-16T04:14:35;3.70;;;1.95;;
21270;SDS011;10795;50.796;3.860;2022-10-16T04:17:00;4.38;;;2.42;;
21270;SDS011;10795;50.796;3.860;2022-10-16T04:19:26;5.25;;;2.50;;
21270;SDS011;10795;50.796;3.860;2022-10-16T04:21:53;4.88;;;2.50;;
21270;SDS011;10795;50.796;3.860;2022-10-16T04:24:19;4.68;;;1.75;;
21270;SDS011;10795;50.796;3.860;2022-10-16T04:26:44;4.10;;;2.28;;
21270;SDS011;10795;50.796;3.860;2022-10-16T04:29:10;2.75;;;1.27;;
21270;SDS011;10795;50.796;3.860;2022-10-16T04:31:36;3.88;;;2.30;;
21270;SDS011;10795;50.796;3.860;2022-10-16T04:34:02;3.90;;;1.92;;
21270;SDS011;10795;50.796;3.860;2022-10-16T04:36:27;5.88;;;2.03;;
21270;SDS011;10795;50.796;3.860;2022-10-16T04:38:53;3.90;;;2.17;;
21270;SDS011;10795;50.796;3.860;2022-10-16T04:41:19;4.55;;;2.30;;
21270;SDS011;10795;50.796;3.860;2022-10-16T04:43:44;6.70;;;2.22;;
21270;SDS011;10795;50.796;3.860;2022-10-16T04:46:10;3.08;;;2.00;;
21270;SDS011;10795;50.796;3.860;2022-10-16T04:48:36;4.72;;;2.25;;
21270;SDS011;10795;50.796;3.860;2022-10-16T04:51:02;6.00;;;2.08;;
21270;SDS011;10795;50.796;3.860;2022-10-16T04:53:27;2.75;;;1.63;;
21270;SDS011;10795;50.796;3.860;2022-10-16T04:55:53;4.35;;;2.10;;
21270;SDS011;10795;50.796;3.860;2022-10-16T04:58:19;6.90;;;2.28;;
21270;SDS011;10795;50.796;3.860;2022-10-16T05:00:45;5.03;;;2.05;;
21270;SDS011;10795;50.796;3.860;2022-10-16T05:03:12;5.03;;;2.88;;
21270;SDS011;10795;50.796;3.860;2022-10-16T05:05:41;2.88;;;2.13;;
21270;SDS011;10795;50.796;3.860;2022-10-16T05:08:08;4.78;;;2.00;;
21270;SDS011;10795;50.796;3.860;2022-10-16T05:10:34;4.55;;;2.10;;
21270;SDS011;10795;50.796;3.860;2022-10-16T05:13:00;4.15;;;2.20;;
21270;SDS011;10795;50.796;3.860;2022-10-16T05:15:25;7.00;;;2.13;;
21270;SDS011;10795;50.796;3.860;2022-10-16T05:17:54;3.97;;;2.05;;
21270;SDS011;10795;50.796;3.860;2022-10-16T05:20:20;4.33;;;1.60;;
21270;SDS011;10795;50.796;3.860;2022-10-16T05:22:47;4.97;;;2.28;;
21270;SDS011;10795;50.796;3.860;2022-10-16T05:25:13;4.38;;;2.15;;
21270;SDS011;10795;50.796;3.860;2022-10-16T05:27:39;4.35;;;2.58;;
21270;SDS011;10795;50.796;3.860;2022-10-16T05:30:05;2.67;;;2.20;;
21270;SDS011;10795;50.796;3.860;2022-10-16T05:32:31;4.90;;;2.33;;
21270;SDS011;10795;50.796;3.860;2022-10-16T05:34:57;3.85;;;2.90;;
21270;SDS011;10795;50.796;3.860;2022-10-16T05:37:25;3.33;;;2.45;;
21270;SDS011;10795;50.796;3.860;2022-10-16T05:39:52;6.40;;;2.42;;
21270;SDS011;10795;50.796;3.860;2022-10-16T05:42:18;7.70;;;2.90;;
21270;SDS011;10795;50.796;3.860;2022-10-16T05:44:44;6.45;;;3.00;;
21270;SDS011;10795;50.796;3.860;2022-10-16T05:47:09;6.85;;;2.70;;
21270;SDS011;10795;50.796;3.860;2022-10-16T05:49:37;3.53;;;2.47;;
21270;SDS011;10795;50.796;3.860;2022-10-16T05:52:03;7.75;;;2.97;;
21270;SDS011;10795;50.796;3.860;2022-10-16T05:54:29;7.18;;;2.38;;
21270;SDS011;10795;50.796;3.860;2022-10-16T05:56:54;3.50;;;2.22;;
21270;SDS011;10795;50.796;3.860;2022-10-16T05:59:20;6.43;;;2.85;;
21270;SDS011;10795;50.796;3.860;2022-10-16T06:01:46;3.42;;;2.33;;
21270;SDS011;10795;50.796;3.860;2022-10-16T06:04:11;5.05;;;2.80;;
21270;SDS011;10795;50.796;3.860;2022-10-16T06:06:37;4.45;;;2.50;;
21270;SDS011;10795;50.796;3.860;2022-10-16T06:09:03;8.70;;;3.05;;
21270;SDS011;10795;50.796;3.860;2022-10-16T06:11:30;5.93;;;2.70;;
21270;SDS011;10795;50.796;3.860;2022-10-16T06:13:58;3.67;;;2.25;;
21270;SDS011;10795;50.796;3.860;2022-10-16T06:16:27;6.82;;;2.80;;
21270;SDS011;10795;50.796;3.860;2022-10-16T06:18:54;3.97;;;2.63;;
21270;SDS011;10795;50.796;3.860;2022-10-16T06:21:41;3.83;;;2.50;;
21270;SDS011;10795;50.796;3.860;2022-10-16T06:24:06;3.85;;;2.50;;
21270;SDS011;10795;50.796;3.860;2022-10-16T06:26:33;4.55;;;2.30;;
21270;SDS011;10795;50.796;3.860;2022-10-16T06:28:59;4.47;;;2.50;;
21270;SDS011;10795;50.796;3.860;2022-10-16T06:31:25;7.15;;;2.75;;
21270;SDS011;10795;50.796;3.860;2022-10-16T06:33:54;3.83;;;2.47;;
21270;SDS011;10795;50.796;3.860;2022-10-16T06:36:21;5.38;;;2.60;;
21270;SDS011;10795;50.796;3.860;2022-10-16T06:38:47;4.50;;;2.75;;
21270;SDS011;10795;50.796;3.860;2022-10-16T06:41:14;4.85;;;2.17;;
21270;SDS011;10795;50.796;3.860;2022-10-16T06:43:40;6.28;;;2.50;;
21270;SDS011;10795;50.796;3.860;2022-10-16T06:46:07;6.32;;;2.72;;
21270;SDS011;10795;50.796;3.860;2022-10-16T06:48:35;3.60;;;2.42;;
21270;SDS011;10795;50.796;3.860;2022-10-16T06:51:02;5.30;;;2.50;;
21270;SDS011;10795;50.796;3.860;2022-10-16T06:53:31;5.95;;;2.40;;
21270;SDS011;10795;50.796;3.860;2022-10-16T06:56:06;3.40;;;2.53;;
21270;SDS011;10795;50.796;3.860;2022-10-16T06:58:43;3.88;;;2.38;;
21270;SDS011;10795;50.796;3.860;2022-10-16T07:01:09;4.43;;;2.30;;
21270;SDS011;10795;50.796;3.860;2022-10-16T07:03:37;7.43;;;2.58;;
21270;SDS011;10795;50.796;3.860;2022-10-16T07:06:03;8.27;;;3.75;;
21270;SDS011;10795;50.796;3.860;2022-10-16T07:08:31;6.93;;;2.67;;
21270;SDS011;10795;50.796;3.860;2022-10-16T07:11:01;3.55;;;2.58;;
21270;SDS011;10795;50.796;3.860;2022-10-16T07:13:28;2.83;;;2.30;;
21270;SDS011;10795;50.796;3.860;2022-10-16T07:15:54;5.65;;;2.67;;
21270;SDS011;10795;50.796;3.860;2022-10-16T07:18:20;8.63;;;2.42;;
21270;SDS011;10795;50.796;3.860;2022-10-16T07:20:51;5.15;;;2.33;;
21270;SDS011;10795;50.796;3.860;2022-10-16T07:23:16;4.20;;;2.80;;
21270;SDS011;10795;50.796;3.860;2022-10-16T07:25:42;3.55;;;2.25;;
21270;SDS011;10795;50.796;3.860;2022-10-16T07:28:08;7.88;;;2.50;;
21270;SDS011;10795;50.796;3.860;2022-10-16T07:30:34;5.80;;;2.50;;
21270;SDS011;10795;50.796;3.860;2022-10-16T07:33:02;7.28;;;2.40;;
21270;SDS011;10795;50.796;3.860;2022-10-16T07:35:28;4.15;;;2.05;;
21270;SDS011;10795;50.796;3.860;2022-10-16T07:37:54;2.42;;;2.13;;
21270;SDS011;10795;50.796;3.860;2022-10-16T07:40:19;5.78;;;2.35;;
21270;SDS011;10795;50.796;3.860;2022-10-16T07:42:45;6.18;;;2.20;;
21270;SDS011;10795;50.796;3.860;2022-10-16T07:45:11;3.90;;;1.92;;
21270;SDS011;10795;50.796;3.860;2022-10-16T07:47:37;3.92;;;2.08;;
21270;SDS011;10795;50.796;3.860;2022-10-16T07:50:02;4.07;;;2.10;;
21270;SDS011;10795;50.796;3.860;2022-10-16T07:52:28;2.78;;;2.00;;
21270;SDS011;10795;50.796;3.860;2022-10-16T07:54:54;2.38;;;1.58;;
21270;SDS011;10795;50.796;3.860;2022-10-16T07:57:20;5.35;;;1.90;;
21270;SDS011;10795;50.796;3.860;2022-10-16T07:59:46;3.42;;;1.98;;
21270;SDS011;10795;50.796;3.860;2022-10-16T08:02:11;2.85;;;1.33;;
21270;SDS011;10795;50.796;3.860;2022-10-16T08:04:37;2.67;;;2.13;;
21270;SDS011;10795;50.796;3.860;2022-10-16T08:07:03;3.90;;;1.73;;
21270;SDS011;10795;50.796;3.860;2022-10-16T08:09:29;4.57;;;2.22;;
21270;SDS011;10795;50.796;3.860;2022-10-16T08:11:54;3.00;;;1.65;;
21270;SDS011;10795;50.796;3.860;2022-10-16T08:14:20;4.28;;;1.75;;
21270;SDS011;10795;50.796;3.860;2022-10-16T08:16:46;1.70;;;1.30;;
21270;SDS011;10795;50.796;3.860;2022-10-16T08:19:12;4.32;;;1.60;;
21270;SDS011;10795;50.796;3.860;2022-10-16T08:21:38;6.00;;;1.73;;
21270;SDS011;10795;50.796;3.860;2022-10-16T08:24:04;4.78;;;1.67;;
21270;SDS011;10795;50.796;3.860;2022-10-16T08:26:30;3.78;;;1.33;;
21270;SDS011;10795;50.796;3.860;2022-10-16T08:28:56;4.35;;;1.42;;
21270;SDS011;10795;50.796;3.860;2022-10-16T08:31:22;5.55;;;1.70;;
21270;SDS011;10795;50.796;3.860;2022-10-16T08:33:48;2.28;;;0.90;;
21270;SDS011;10795;50.796;3.860;2022-10-16T08:36:14;5.32;;;1.27;;
21270;SDS011;10795;50.796;3.860;2022-10-16T08:38:41;2.35;;;0.93;;
21270;SDS011;10795;50.796;3.860;2022-10-16T08:44:24;4.03;;;1.35;;
21270;SDS011;10795;50.796;3.860;2022-10-16T08:49:57;2.92;;;1.40;;
21270;SDS011;10795;50.796;3.860;2022-10-16T08:52:28;4.53;;;1.30;;
21270;SDS011;10795;50.796;3.860;2022-10-16T08:54:56;8.00;;;1.20;;
21270;SDS011;10795;50.796;3.860;2022-10-16T08:57:24;1.98;;;1.10;;
21270;SDS011;10795;50.796;3.860;2022-10-16T08:59:51;3.10;;;1.20;;
21270;SDS011;10795;50.796;3.860;2022-10-16T09:10:35;4.28;;;1.20;;
21270;SDS011;10795;50.796;3.860;2022-10-16T09:13:46;2.72;;;1.38;;
21270;SDS011;10795;50.796;3.860;2022-10-16T09:21:27;2.30;;;1.07;;
21270;SDS011;10795;50.796;3.860;2022-10-16T09:26:47;5.38;;;1.38;;
21270;SDS011;10795;50.796;3.860;2022-10-16T09:29:17;5.63;;;0.95;;
21270;SDS011;10795;50.796;3.860;2022-10-16T09:31:49;5.15;;;0.93;;
21270;SDS011;10795;50.796;3.860;2022-10-16T09:34:29;4.80;;;1.52;;
21270;SDS011;10795;50.796;3.860;2022-10-16T09:36:57;4.82;;;1.00;;
21270;SDS011;10795;50.796;3.860;2022-10-16T09:39:25;2.92;;;0.88;;
21270;SDS011;10795;50.796;3.860;2022-10-16T09:41:51;2.78;;;0.80;;
21270;SDS011;10795;50.796;3.860;2022-10-16T09:47:01;2.60;;;0.93;;
21270;SDS011;10795;50.796;3.860;2022-10-16T09:49:28;5.88;;;1.10;;
21270;SDS011;10795;50.796;3.860;2022-10-16T09:52:04;7.30;;;1.23;;
21270;SDS011;10795;50.796;3.860;2022-10-16T09:54:50;5.07;;;1.30;;
21270;SDS011;10795;50.796;3.860;2022-10-16T09:57:23;3.50;;;1.05;;
21270;SDS011;10795;50.796;3.860;2022-10-16T09:59:53;2.38;;;0.93;;
21270;SDS011;10795;50.796;3.860;2022-10-16T10:02:36;6.32;;;1.30;;
21270;SDS011;10795;50.796;3.860;2022-10-16T10:05:04;1.80;;;0.88;;
21270;SDS011;10795;50.796;3.860;2022-10-16T10:07:42;3.67;;;0.90;;
21270;SDS011;10795;50.796;3.860;2022-10-16T10:10:33;7.68;;;1.17;;
21270;SDS011;10795;50.796;3.860;2022-10-16T10:12:58;6.05;;;1.27;;
21270;SDS011;10795;50.796;3.860;2022-10-16T10:15:24;3.78;;;1.00;;
21270;SDS011;10795;50.796;3.860;2022-10-16T10:17:56;4.30;;;0.98;;
21270;SDS011;10795;50.796;3.860;2022-10-16T10:22:52;4.68;;;0.90;;
21270;SDS011;10795;50.796;3.860;2022-10-16T10:25:39;3.72;;;1.08;;
21270;SDS011;10795;50.796;3.860;2022-10-16T10:36:21;4.57;;;1.02;;
21270;SDS011;10795;50.796;3.860;2022-10-16T10:38:58;4.85;;;1.10;;
21270;SDS011;10795;50.796;3.860;2022-10-16T10:50:45;10.18;;;1.10;;
21270;SDS011;10795;50.796;3.860;2022-10-16T10:56:14;3.40;;;0.85;;
21270;SDS011;10795;50.796;3.860;2022-10-16T10:58:59;2.65;;;0.50;;
21270;SDS011;10795;50.796;3.860;2022-10-16T11:02:47;7.53;;;0.95;;
21270;SDS011;10795;50.796;3.860;2022-10-16T11:07:21;3.15;;;0.98;;
21270;SDS011;10795;50.796;3.860;2022-10-16T11:10:19;5.70;;;0.95;;
21270;SDS011;10795;50.796;3.860;2022-10-16T11:12:57;6.05;;;1.10;;
21270;SDS011;10795;50.796;3.860;2022-10-16T11:15:32;6.78;;;1.00;;
21270;SDS011;10795;50.796;3.860;2022-10-16T11:18:06;4.13;;;1.15;;
21270;SDS011;10795;50.796;3.860;2022-10-16T11:20:45;3.80;;;1.02;;
21270;SDS011;10795;50.796;3.860;2022-10-16T11:25:54;3.80;;;0.90;;
21270;SDS011;10795;50.796;3.860;2022-10-16T11:28:29;3.25;;;0.85;;
21270;SDS011;10795;50.796;3.860;2022-10-16T11:36:42;5.00;;;1.07;;
21270;SDS011;10795;50.796;3.860;2022-10-16T11:39:19;5.68;;;1.00;;
21270;SDS011;10795;50.796;3.860;2022-10-16T11:41:49;2.83;;;0.73;;
21270;SDS011;10795;50.796;3.860;2022-10-16T11:49:37;3.45;;;1.00;;
21270;SDS011;10795;50.796;3.860;2022-10-16T11:52:25;2.92;;;0.80;;
21270;SDS011;10795;50.796;3.860;2022-10-16T11:55:14;6.57;;;1.13;;
21270;SDS011;10795;50.796;3.860;2022-10-16T11:57:47;3.70;;;0.60;;
21270;SDS011;10795;50.796;3.860;2022-10-16T12:00:24;2.70;;;0.73;;
21270;SDS011;10795;50.796;3.860;2022-10-16T12:08:23;1.80;;;0.60;;
21270;SDS011;10795;50.796;3.860;2022-10-16T12:10:52;3.45;;;0.85;;
21270;SDS011;10795;50.796;3.860;2022-10-16T12:13:30;2.53;;;0.55;;
21270;SDS011;10795;50.796;3.860;2022-10-16T12:16:19;1.75;;;0.60;;
21270;SDS011;10795;50.796;3.860;2022-10-16T12:18:47;1.00;;;0.50;;
21270;SDS011;10795;50.796;3.860;2022-10-16T12:21:14;0.98;;;0.60;;
21270;SDS011;10795;50.796;3.860;2022-10-16T12:23:52;4.07;;;0.68;;
21270;SDS011;10795;50.796;3.860;2022-10-16T12:26:31;4.23;;;0.70;;
21270;SDS011;10795;50.796;3.860;2022-10-16T12:29:19;1.23;;;0.57;;
21270;SDS011;10795;50.796;3.860;2022-10-16T12:32:42;3.10;;;0.70;;
21270;SDS011;10795;50.796;3.860;2022-10-16T12:35:03;3.30;;;0.90;;
21270;SDS011;10795;50.796;3.860;2022-10-16T12:37:33;2.63;;;0.77;;
21270;SDS011;10795;50.796;3.860;2022-10-16T12:40:46;2.33;;;0.80;;
21270;SDS011;10795;50.796;3.860;2022-10-16T12:42:57;4.15;;;0.80;;
21270;SDS011;10795;50.796;3.860;2022-10-16T12:45:25;2.85;;;0.82;;
21270;SDS011;10795;50.796;3.860;2022-10-16T12:47:56;1.50;;;0.60;;
21270;SDS011;10795;50.796;3.860;2022-10-16T12:50:25;3.70;;;0.82;;
21270;SDS011;10795;50.796;3.860;2022-10-16T12:52:56;3.55;;;0.82;;
21270;SDS011;10795;50.796;3.860;2022-10-16T12:55:23;3.42;;;0.90;;
21270;SDS011;10795;50.796;3.860;2022-10-16T13:00:37;2.22;;;0.80;;
21270;SDS011;10795;50.796;3.860;2022-10-16T13:20:33;4.70;;;0.60;;
21270;SDS011;10795;50.796;3.860;2022-10-16T13:23:16;4.22;;;0.65;;
21270;SDS011;10795;50.796;3.860;2022-10-16T13:28:20;1.02;;;0.40;;
21270;SDS011;10795;50.796;3.860;2022-10-16T13:30:52;1.85;;;0.50;;
21270;SDS011;10795;50.796;3.860;2022-10-16T13:35:56;2.83;;;0.52;;
21270;SDS011;10795;50.796;3.860;2022-10-16T13:38:24;2.22;;;0.60;;
21270;SDS011;10795;50.796;3.860;2022-10-16T13:40:56;1.33;;;0.40;;
21270;SDS011;10795;50.796;3.860;2022-10-16T13:46:00;2.22;;;0.65;;
21270;SDS011;10795;50.796;3.860;2022-10-16T13:48:28;8.38;;;0.88;;
21270;SDS011;10795;50.796;3.860;2022-10-16T13:53:33;3.20;;;1.00;;
21270;SDS011;10795;50.796;3.860;2022-10-16T13:56:00;3.13;;;1.10;;
21270;SDS011;10795;50.796;3.860;2022-10-16T13:58:28;3.33;;;0.80;;
21270;SDS011;10795;50.796;3.860;2022-10-16T14:01:16;1.83;;;0.80;;
21270;SDS011;10795;50.796;3.860;2022-10-16T14:03:44;1.40;;;0.70;;
21270;SDS011;10795;50.796;3.860;2022-10-16T14:06:15;1.63;;;1.00;;
21270;SDS011;10795;50.796;3.860;2022-10-16T14:08:48;4.88;;;0.93;;
21270;SDS011;10795;50.796;3.860;2022-10-16T14:11:20;5.15;;;1.50;;
21270;SDS011;10795;50.796;3.860;2022-10-16T14:13:48;3.20;;;0.90;;
21270;SDS011;10795;50.796;3.860;2022-10-16T14:16:23;2.47;;;1.10;;
21270;SDS011;10795;50.796;3.860;2022-10-16T14:19:02;1.85;;;0.77;;
21270;SDS011;10795;50.796;3.860;2022-10-16T14:21:35;3.50;;;1.02;;
21270;SDS011;10795;50.796;3.860;2022-10-16T14:24:12;1.75;;;0.70;;
21270;SDS011;10795;50.796;3.860;2022-10-16T14:26:50;4.18;;;1.35;;
21270;SDS011;10795;50.796;3.860;2022-10-16T14:29:19;2.42;;;0.98;;
21270;SDS011;10795;50.796;3.860;2022-10-16T14:34:32;3.03;;;1.15;;
21270;SDS011;10795;50.796;3.860;2022-10-16T14:37:00;5.03;;;1.70;;
21270;SDS011;10795;50.796;3.860;2022-10-16T14:39:32;2.83;;;1.27;;
21270;SDS011;10795;50.796;3.860;2022-10-16T14:41:58;3.85;;;1.80;;
21270;SDS011;10795;50.796;3.860;2022-10-16T14:44:31;2.72;;;0.90;;
21270;SDS011;10795;50.796;3.860;2022-10-16T14:46:58;2.55;;;1.08;;
21270;SDS011;10795;50.796;3.860;2022-10-16T14:49:33;1.67;;;1.13;;
21270;SDS011;10795;50.796;3.860;2022-10-16T14:51:59;2.75;;;1.10;;
21270;SDS011;10795;50.796;3.860;2022-10-16T14:54:24;4.22;;;1.20;;
21270;SDS011;10795;50.796;3.860;2022-10-16T14:56:54;3.35;;;1.10;;
21270;SDS011;10795;50.796;3.860;2022-10-16T15:01:49;2.38;;;0.93;;
21270;SDS011;10795;50.796;3.860;2022-10-16T15:04:15;3.08;;;1.02;;
21270;SDS011;10795;50.796;3.860;2022-10-16T15:06:41;2.10;;;1.00;;
21270;SDS011;10795;50.796;3.860;2022-10-16T15:09:07;4.63;;;1.10;;
21270;SDS011;10795;50.796;3.860;2022-10-16T15:11:33;4.65;;;1.25;;
21270;SDS011;10795;50.796;3.860;2022-10-16T15:13:59;4.22;;;0.90;;
21270;SDS011;10795;50.796;3.860;2022-10-16T15:16:25;7.85;;;1.20;;
21270;SDS011;10795;50.796;3.860;2022-10-16T15:18:50;5.82;;;1.23;;
21270;SDS011;10795;50.796;3.860;2022-10-16T15:21:25;3.78;;;0.88;;
21270;SDS011;10795;50.796;3.860;2022-10-16T15:23:51;3.38;;;1.00;;
21270;SDS011;10795;50.796;3.860;2022-10-16T15:26:17;4.22;;;2.30;;
21270;SDS011;10795;50.796;3.860;2022-10-16T15:28:43;1.33;;;0.98;;
21270;SDS011;10795;50.796;3.860;2022-10-16T15:31:09;5.20;;;0.90;;
21270;SDS011;10795;50.796;3.860;2022-10-16T15:33:34;2.10;;;1.00;;
21270;SDS011;10795;50.796;3.860;2022-10-16T15:36:01;6.93;;;2.40;;
21270;SDS011;10795;50.796;3.860;2022-10-16T15:38:28;2.88;;;0.90;;
21270;SDS011;10795;50.796;3.860;2022-10-16T15:40:54;3.10;;;2.65;;
21270;SDS011;10795;50.796;3.860;2022-10-16T15:43:21;3.88;;;1.80;;
21270;SDS011;10795;50.796;3.860;2022-10-16T15:45:58;7.72;;;4.45;;
21270;SDS011;10795;50.796;3.860;2022-10-16T15:48:29;4.45;;;1.92;;
21270;SDS011;10795;50.796;3.860;2022-10-16T15:50:55;1.88;;;1.13;;
21270;SDS011;10795;50.796;3.860;2022-10-16T15:53:21;1.05;;;0.75;;
21270;SDS011;10795;50.796;3.860;2022-10-16T15:55:47;1.80;;;0.93;;
21270;SDS011;10795;50.796;3.860;2022-10-16T15:58:13;3.88;;;1.75;;
21270;SDS011;10795;50.796;3.860;2022-10-16T16:00:38;2.80;;;1.60;;
21270;SDS011;10795;50.796;3.860;2022-10-16T16:03:04;5.38;;;2.20;;
21270;SDS011;10795;50.796;3.860;2022-10-16T16:05:30;2.75;;;0.82;;
21270;SDS011;10795;50.796;3.860;2022-10-16T16:07:58;2.63;;;0.80;;
21270;SDS011;10795;50.796;3.860;2022-10-16T16:10:24;1.77;;;0.90;;
21270;SDS011;10795;50.796;3.860;2022-10-16T16:12:50;1.55;;;1.08;;
21270;SDS011;10795;50.796;3.860;2022-10-16T16:15:21;1.60;;;0.80;;
21270;SDS011;10795;50.796;3.860;2022-10-16T16:17:47;2.60;;;0.85;;
21270;SDS011;10795;50.796;3.860;2022-10-16T16:20:14;4.53;;;1.08;;
21270;SDS011;10795;50.796;3.860;2022-10-16T16:22:40;7.93;;;3.97;;
21270;SDS011;10795;50.796;3.860;2022-10-16T16:25:06;3.45;;;1.23;;
21270;SDS011;10795;50.796;3.860;2022-10-16T16:27:32;11.13;;;6.13;;
21270;SDS011;10795;50.796;3.860;2022-10-16T16:29:59;13.98;;;12.50;;
21270;SDS011;10795;50.796;3.860;2022-10-16T16:32:26;8.25;;;5.13;;
21270;SDS011;10795;50.796;3.860;2022-10-16T16:34:52;10.07;;;5.63;;
21270;SDS011;10795;50.796;3.860;2022-10-16T16:37:17;8.82;;;2.58;;
21270;SDS011;10795;50.796;3.860;2022-10-16T16:39:43;12.88;;;10.05;;
21270;SDS011;10795;50.796;3.860;2022-10-16T16:42:09;5.93;;;4.68;;
21270;SDS011;10795;50.796;3.860;2022-10-16T16:44:35;5.05;;;3.05;;
21270;SDS011;10795;50.796;3.860;2022-10-16T16:47:02;6.00;;;2.20;;
21270;SDS011;10795;50.796;3.860;2022-10-16T16:49:29;3.15;;;1.65;;
21270;SDS011;10795;50.796;3.860;2022-10-16T16:51:55;2.88;;;1.40;;
21270;SDS011;10795;50.796;3.860;2022-10-16T16:54:21;2.55;;;1.20;;
21270;SDS011;10795;50.796;3.860;2022-10-16T16:56:47;2.67;;;1.35;;
21270;SDS011;10795;50.796;3.860;2022-10-16T16:59:13;2.63;;;1.45;;